Luzern, Switzerland
Current Conditions -  °F | °C
As of 5:50 PM on Saturday 20 Dec 2014 (Local Time) from LSME Reporting Station
Overcast Overcast  
Wind Chill: 40°   Ceiling: 3800
Heat Index: 43°   Visibility: 6mi
Dew Point: 36°   Wind: 5mph
Humidity: 76%   Direction: 30°NNE
Pressure: 30.36"   Gusts: NA
Location:  47.06°N, 8.3°E
Report Text: LSME 201650Z AUTO 03004KT 340V070 9999NDV OVC038 06/02 Q1028 RMK WHT
Loading
Personal Weather Stations






























Interactive Weather Map New forecast layout! Learn more

10-Day Weather Forecast

Advertisements
Track Severe Weather on mobile